Terminal Aerodrome Forecast
Issued by NWS

Home | Current Version | Previous Version | Text Only | Print | Product List | Glossary On
Versions: 1 2 3 4 5 6 7 8 9 10 11 12 13 14 15
000
FTUS43 KGRB 301700
TAFMTW
TAF
KMTW 301735Z 3018/3118 25006KT P6SM SCT035 BKN100
     FM302000 27007KT P6SM BKN035 OVC060
     FM310000 29009KT P6SM -RA OVC035
     FM310300 32014G24KT P6SM BKN035 BKN080
     FM310800 34020G32KT P6SM SCT025 OVC040
      TEMPO 3109/3113 2SM SHRASN BKN025
     FM311300 35027G38KT P6SM OVC040=

USA.gov is the U.S. government's official web portal to all federal, state and local government web resources and services.